Time;durP1;ratioP1;P1;durP2;ratioP2;P2;SDS_P1;SDS_P2;PMS_P1;PMS_P2;Temp;Humidity;BMP_temperature;BMP_pressure;BME280_temperature;BME280_humidity;BME280_pressure;Samples;Min_cycle;Max_cycle;Signal;HPM_P1;HPM_P2
2021/01/30 00:01:09;;;;;;;16.37;14.63;;;;;;;;;;5027134;28;20445;-70
2021/01/30 00:03:35;;;;;;;16.97;15.27;;;;;;;;;;5033729;28;20448;-68
2021/01/30 00:06:02;;;;;;;21.33;17.40;;;;;;;;;;5033699;28;20456;-70
2021/01/30 00:08:29;;;;;;;17.17;15.37;;;;;;;;;;5033224;28;20858;-70
2021/01/30 00:10:56;;;;;;;16.00;14.30;;;;;;;;;;5032959;28;20492;-70
2021/01/30 00:13:23;;;;;;;19.30;17.23;;;;;;;;;;5033631;28;20456;-70
2021/01/30 00:15:50;;;;;;;18.63;16.73;;;;;;;;;;5022354;28;20802;-70
2021/01/30 00:18:17;;;;;;;18.53;15.60;;;;;;;;;;4999235;28;20482;-71
2021/01/30 00:20:43;;;;;;;18.20;16.30;;;;;;;;;;5004703;28;20512;-71
2021/01/30 00:23:10;;;;;;;18.50;16.53;;;;;;;;;;5013556;28;20499;-71
2021/01/30 00:25:37;;;;;;;20.97;17.50;;;;;;;;;;5022072;28;20453;-71
2021/01/30 00:28:04;;;;;;;18.90;16.83;;;;;;;;;;5032741;28;20545;-70
2021/01/30 00:30:32;;;;;;;18.87;15.90;;;;;;;;;;5030075;28;20797;-70
2021/01/30 00:33:00;;;;;;;21.30;18.27;;;;;;;;;;5004795;28;20473;-70
2021/01/30 00:35:28;;;;;;;20.00;17.77;;;;;;;;;;5021509;28;20449;-70
2021/01/30 00:37:55;;;;;;;18.57;16.57;;;;;;;;;;5032289;28;20503;-70
2021/01/30 00:40:22;;;;;;;23.13;17.50;;;;;;;;;;5013550;28;20960;-70
2021/01/30 00:42:49;;;;;;;20.50;17.87;;;;;;;;;;5013047;28;20484;-70
2021/01/30 00:45:17;;;;;;;19.63;17.43;;;;;;;;;;5025699;28;20980;-70
2021/01/30 00:47:43;;;;;;;19.00;16.90;;;;;;;;;;5032719;28;20559;-70
2021/01/30 00:50:11;;;;;;;18.93;15.90;;;;;;;;;;5024355;28;20450;-70
2021/01/30 00:52:42;;;;;;;18.10;16.20;;;;;;;;;;5012667;28;21007;-70
2021/01/30 00:55:09;;;;;;;19.40;17.37;;;;;;;;;;5012804;28;20476;-70
2021/01/30 00:57:35;;;;;;;17.63;15.80;;;;;;;;;;5012757;28;20851;-70
2021/01/30 01:00:02;;;;;;;23.20;18.20;;;;;;;;;;5021913;28;20449;-70
2021/01/30 01:02:29;;;;;;;18.60;16.67;;;;;;;;;;5032837;28;20456;-70
2021/01/30 01:04:55;;;;;;;18.73;16.83;;;;;;;;;;5030571;28;20452;-70
2021/01/30 01:07:23;;;;;;;21.23;18.67;;;;;;;;;;5025447;28;20473;-70
2021/01/30 01:09:49;;;;;;;19.30;16.50;;;;;;;;;;5018246;28;20459;-70
2021/01/30 01:12:16;;;;;;;21.87;17.50;;;;;;;;;;5032269;28;20485;-70
2021/01/30 01:14:42;;;;;;;19.83;17.60;;;;;;;;;;5023714;28;20448;-70
2021/01/30 01:17:09;;;;;;;20.23;17.83;;;;;;;;;;5012576;28;20996;-70
2021/01/30 01:19:35;;;;;;;18.30;16.23;;;;;;;;;;5022920;28;20459;-70
2021/01/30 01:22:02;;;;;;;20.27;17.70;;;;;;;;;;5032193;28;20448;-70
2021/01/30 01:24:30;;;;;;;22.67;18.73;;;;;;;;;;5019184;28;20867;-69
2021/01/30 01:26:56;;;;;;;21.57;18.13;;;;;;;;;;5011798;28;20829;-70
2021/01/30 01:29:23;;;;;;;21.73;19.20;;;;;;;;;;5012085;28;20460;-70
2021/01/30 01:31:51;;;;;;;22.23;17.70;;;;;;;;;;5015518;28;20472;-70
2021/01/30 01:34:18;;;;;;;23.03;19.00;;;;;;;;;;5024496;28;20441;-70
2021/01/30 01:36:45;;;;;;;22.07;18.80;;;;;;;;;;5012611;28;20453;-70
2021/01/30 01:39:11;;;;;;;22.57;18.37;;;;;;;;;;5011969;28;20453;-70
2021/01/30 01:41:39;;;;;;;23.63;19.97;;;;;;;;;;5012424;28;20499;-70
2021/01/30 01:44:05;;;;;;;21.77;19.40;;;;;;;;;;5012150;28;20967;-70
2021/01/30 01:46:34;;;;;;;20.93;18.50;;;;;;;;;;5015099;28;20531;-70
2021/01/30 01:49:03;;;;;;;20.80;18.73;;;;;;;;;;5011591;28;20473;-70
2021/01/30 01:51:34;;;;;;;19.53;17.30;;;;;;;;;;5011961;28;20846;-70
2021/01/30 01:54:02;;;;;;;17.50;15.63;;;;;;;;;;5012185;28;20468;-70
2021/01/30 01:56:30;;;;;;;19.63;17.53;;;;;;;;;;5015754;28;20456;-70
2021/01/30 01:59:01;;;;;;;20.93;18.03;;;;;;;;;;5030677;28;20499;-70
2021/01/30 02:01:27;;;;;;;20.63;18.27;;;;;;;;;;5030985;28;20441;-70
2021/01/30 02:03:57;;;;;;;20.87;17.30;;;;;;;;;;5029672;28;20456;-70
2021/01/30 02:06:24;;;;;;;20.13;17.93;;;;;;;;;;5012071;28;20473;-70
2021/01/30 02:08:51;;;;;;;21.30;18.43;;;;;;;;;;5011273;28;20495;-70
2021/01/30 02:11:17;;;;;;;18.30;16.30;;;;;;;;;;5011774;28;20481;-70
2021/01/30 02:13:46;;;;;;;21.93;18.50;;;;;;;;;;5011623;28;20449;-70
2021/01/30 02:16:20;;;;;;;18.77;16.77;;;;;;;;;;5019138;28;20461;-70
2021/01/30 02:18:52;;;;;;;21.20;18.37;;;;;;;;;;5011234;28;20496;-70
2021/01/30 02:21:37;;;;;;;21.23;19.03;;;;;;;;;;4997955;28;20488;-69
2021/01/30 02:24:25;;;;;;;21.40;17.83;;;;;;;;;;5016990;28;20452;-70
2021/01/30 02:27:01;;;;;;;21.63;18.13;;;;;;;;;;5035437;28;20449;-70
2021/01/30 02:29:42;;;;;;;19.67;17.57;;;;;;;;;;5031120;28;20451;-70
2021/01/30 02:32:20;;;;;;;19.90;17.80;;;;;;;;;;4972918;28;20492;-70
2021/01/30 02:34:54;;;;;;;19.47;17.37;;;;;;;;;;5020949;28;20490;-70
2021/01/30 02:37:22;;;;;;;18.20;16.30;;;;;;;;;;5035176;28;20979;-70
2021/01/30 02:39:51;;;;;;;20.00;15.83;;;;;;;;;;5029745;28;20463;-71
2021/01/30 02:42:19;;;;;;;19.90;17.50;;;;;;;;;;5035374;28;20503;-70
2021/01/30 02:44:48;;;;;;;19.50;17.30;;;;;;;;;;5025163;28;20449;-70
2021/01/30 02:47:17;;;;;;;21.17;18.17;;;;;;;;;;5015365;28;20723;-70
2021/01/30 02:49:46;;;;;;;20.93;18.77;;;;;;;;;;5015321;28;20446;-70
2021/01/30 02:52:16;;;;;;;19.47;17.50;;;;;;;;;;5015131;28;20481;-70
2021/01/30 02:54:43;;;;;;;20.80;17.20;;;;;;;;;;5015186;28;20456;-70
2021/01/30 02:57:11;;;;;;;20.00;17.70;;;;;;;;;;5015124;28;20473;-70
2021/01/30 02:59:41;;;;;;;20.73;18.53;;;;;;;;;;5014624;28;20503;-70
2021/01/30 03:02:07;;;;;;;20.10;15.90;;;;;;;;;;5015266;28;20441;-70
2021/01/30 03:04:37;;;;;;;18.40;16.53;;;;;;;;;;5015455;28;20456;-70
2021/01/30 03:07:22;;;;;;;22.57;19.80;;;;;;;;;;5014832;28;20485;-71
2021/01/30 03:09:55;;;;;;;19.57;17.57;;;;;;;;;;5021905;28;20493;-70
2021/01/30 03:12:25;;;;;;;21.30;19.00;;;;;;;;;;5032277;28;20492;-70
2021/01/30 03:14:55;;;;;;;19.00;17.00;;;;;;;;;;5018284;28;20952;-70
2021/01/30 03:17:25;;;;;;;22.70;19.37;;;;;;;;;;5015185;28;20472;-71
2021/01/30 03:19:53;;;;;;;20.93;18.73;;;;;;;;;;5014390;28;20465;-72
2021/01/30 03:22:20;;;;;;;20.37;18.27;;;;;;;;;;5017502;28;20441;-71
2021/01/30 03:24:47;;;;;;;23.10;19.07;;;;;;;;;;5014479;28;20453;-70
2021/01/30 03:27:18;;;;;;;19.60;17.67;;;;;;;;;;5016101;28;20492;-72
2021/01/30 03:29:44;;;;;;;21.17;18.87;;;;;;;;;;5048055;22;20553;-69
2021/01/30 03:32:11;;;;;;;21.60;19.30;;;;;;;;;;5026204;28;20521;-68
2021/01/30 03:34:38;;;;;;;23.17;19.70;;;;;;;;;;5021832;28;20715;-69
2021/01/30 03:37:04;;;;;;;22.00;19.70;;;;;;;;;;5013891;28;20449;-67
2021/01/30 03:39:31;;;;;;;23.30;20.10;;;;;;;;;;5014083;28;21019;-69
2021/01/30 03:41:57;;;;;;;24.17;19.67;;;;;;;;;;5011596;28;20453;-69
2021/01/30 03:44:25;;;;;;;21.43;19.20;;;;;;;;;;5014528;28;20453;-69
2021/01/30 03:46:51;;;;;;;21.30;19.10;;;;;;;;;;5014000;28;20453;-69
2021/01/30 03:49:18;;;;;;;21.77;18.77;;;;;;;;;;5013860;28;21019;-68
2021/01/30 03:51:44;;;;;;;20.60;18.47;;;;;;;;;;5013945;28;20485;-68
2021/01/30 03:54:13;;;;;;;19.37;17.33;;;;;;;;;;5013908;28;20453;-69
2021/01/30 03:56:40;;;;;;;19.67;17.67;;;;;;;;;;5013894;28;20450;-69
2021/01/30 03:59:06;;;;;;;18.57;16.47;;;;;;;;;;4998576;28;20553;-69
2021/01/30 04:01:34;;;;;;;18.50;16.47;;;;;;;;;;5007397;28;20508;-68
2021/01/30 04:04:01;;;;;;;19.20;17.20;;;;;;;;;;5014068;28;20456;-68
2021/01/30 04:06:27;;;;;;;21.37;19.37;;;;;;;;;;5013835;28;20462;-68
2021/01/30 04:08:54;;;;;;;22.37;20.27;;;;;;;;;;5013890;28;20453;-68
2021/01/30 04:11:24;;;;;;;22.33;20.33;;;;;;;;;;5013582;28;20481;-68
2021/01/30 04:13:50;;;;;;;22.80;20.80;;;;;;;;;;5013941;28;20449;-68
2021/01/30 04:16:17;;;;;;;22.60;20.40;;;;;;;;;;5012859;28;20454;-68
2021/01/30 04:18:44;;;;;;;22.87;20.67;;;;;;;;;;5013346;28;20933;-68
2021/01/30 04:21:11;;;;;;;23.87;21.57;;;;;;;;;;5013394;28;20446;-68
2021/01/30 04:23:38;;;;;;;23.00;20.97;;;;;;;;;;5013763;28;20452;-68
2021/01/30 04:26:05;;;;;;;23.53;21.33;;;;;;;;;;5013297;28;20464;-68
2021/01/30 04:28:31;;;;;;;24.43;22.23;;;;;;;;;;5013050;28;20445;-69
2021/01/30 04:30:58;;;;;;;23.93;21.60;;;;;;;;;;5012597;28;20524;-69
2021/01/30 04:33:24;;;;;;;24.83;22.50;;;;;;;;;;5003438;28;20481;-69
2021/01/30 04:35:52;;;;;;;24.93;22.53;;;;;;;;;;4998151;28;20866;-69
2021/01/30 04:38:19;;;;;;;25.23;22.63;;;;;;;;;;4993542;28;20480;-69
2021/01/30 04:40:46;;;;;;;25.27;22.67;;;;;;;;;;5012851;28;20489;-69
2021/01/30 04:43:16;;;;;;;25.40;23.00;;;;;;;;;;5012026;28;20450;-69
2021/01/30 04:45:51;;;;;;;26.13;23.47;;;;;;;;;;5012785;28;20453;-69
2021/01/30 04:48:24;;;;;;;27.23;24.47;;;;;;;;;;4993419;28;20983;-68
2021/01/30 04:50:53;;;;;;;26.13;23.50;;;;;;;;;;5010379;28;20492;-69
2021/01/30 04:53:29;;;;;;;27.10;24.20;;;;;;;;;;5013046;28;20941;-69
2021/01/30 04:56:00;;;;;;;28.03;25.33;;;;;;;;;;5012703;28;20504;-69
2021/01/30 04:58:32;;;;;;;27.27;24.53;;;;;;;;;;5012642;28;20454;-69
2021/01/30 05:01:08;;;;;;;27.87;25.07;;;;;;;;;;5011874;28;20531;-68
2021/01/30 05:03:50;;;;;;;27.87;25.00;;;;;;;;;;5012614;28;20952;-67
2021/01/30 05:06:18;;;;;;;28.20;25.43;;;;;;;;;;5012015;28;20449;-68
2021/01/30 05:08:47;;;;;;;27.90;25.20;;;;;;;;;;5011035;28;20456;-69
2021/01/30 05:11:16;;;;;;;29.87;26.77;;;;;;;;;;5012994;28;20616;-68
2021/01/30 05:13:45;;;;;;;29.67;26.70;;;;;;;;;;5012466;28;20833;-69
2021/01/30 05:16:17;;;;;;;31.23;28.13;;;;;;;;;;5012708;28;20496;-69
2021/01/30 05:18:46;;;;;;;30.00;26.90;;;;;;;;;;5012007;28;20445;-69
2021/01/30 05:21:14;;;;;;;30.93;27.80;;;;;;;;;;5011867;28;20476;-69
2021/01/30 05:23:43;;;;;;;32.20;28.90;;;;;;;;;;5012282;28;20828;-69
2021/01/30 05:26:17;;;;;;;34.20;30.77;;;;;;;;;;5011836;28;20963;-69
2021/01/30 05:28:45;;;;;;;38.43;30.20;;;;;;;;;;5011483;28;20901;-68
2021/01/30 05:31:21;;;;;;;34.00;30.37;;;;;;;;;;5012322;28;20491;-69
2021/01/30 05:33:55;;;;;;;35.53;31.30;;;;;;;;;;5010079;28;20449;-68
2021/01/30 05:36:23;;;;;;;36.10;32.30;;;;;;;;;;5012222;28;20453;-68
2021/01/30 05:38:57;;;;;;;38.30;33.10;;;;;;;;;;5011411;28;20461;-69
2021/01/30 05:41:35;;;;;;;37.63;32.57;;;;;;;;;;5012123;28;20820;-69
2021/01/30 05:44:05;;;;;;;37.17;33.17;;;;;;;;;;5009879;28;20452;-69
2021/01/30 05:46:32;;;;;;;37.10;32.37;;;;;;;;;;5012127;28;20456;-69
2021/01/30 05:49:01;;;;;;;37.47;33.13;;;;;;;;;;5011671;28;20473;-69
2021/01/30 05:51:31;;;;;;;37.13;33.03;;;;;;;;;;5011501;28;20481;-69
2021/01/30 05:53:58;;;;;;;36.37;32.13;;;;;;;;;;5011643;28;20460;-69
2021/01/30 05:56:24;;;;;;;38.83;33.83;;;;;;;;;;5011699;28;20450;-69
2021/01/30 05:58:52;;;;;;;39.00;32.87;;;;;;;;;;5007254;28;20456;-69
2021/01/30 06:01:20;;;;;;;37.13;32.43;;;;;;;;;;5011734;28;20941;-69
2021/01/30 06:03:53;;;;;;;37.83;33.80;;;;;;;;;;5011554;28;20957;-69
2021/01/30 06:06:21;;;;;;;34.00;30.47;;;;;;;;;;5011847;28;20456;-69
2021/01/30 06:08:55;;;;;;;35.93;31.53;;;;;;;;;;5011053;28;20465;-69
2021/01/30 06:11:21;;;;;;;39.33;32.10;;;;;;;;;;5011468;28;20481;-68
2021/01/30 06:13:56;;;;;;;35.33;31.50;;;;;;;;;;5011794;28;20460;-69
2021/01/30 06:16:36;;;;;;;35.33;30.77;;;;;;;;;;5010982;28;20449;-70
2021/01/30 06:19:10;;;;;;;34.13;30.47;;;;;;;;;;5010952;28;20469;-70
2021/01/30 06:21:37;;;;;;;33.20;29.67;;;;;;;;;;5011695;28;20449;-69
2021/01/30 06:24:04;;;;;;;35.00;29.80;;;;;;;;;;5011794;28;20449;-69
2021/01/30 06:26:31;;;;;;;33.03;29.47;;;;;;;;;;5011525;28;20464;-69
2021/01/30 06:29:01;;;;;;;32.80;29.70;;;;;;;;;;5010972;28;20473;-69
2021/01/30 06:31:29;;;;;;;34.40;29.00;;;;;;;;;;5011409;28;20481;-69
2021/01/30 06:33:57;;;;;;;32.00;28.03;;;;;;;;;;5010219;28;20968;-69
2021/01/30 06:36:26;;;;;;;30.67;27.57;;;;;;;;;;4992081;28;20504;-70
2021/01/30 06:38:55;;;;;;;32.83;27.67;;;;;;;;;;4995257;28;20454;-70
2021/01/30 06:41:23;;;;;;;29.20;26.10;;;;;;;;;;5011689;28;20446;-68
2021/01/30 06:43:52;;;;;;;29.23;26.07;;;;;;;;;;5011342;28;20873;-68
2021/01/30 06:46:21;;;;;;;31.03;27.37;;;;;;;;;;5011705;28;20458;-70
2021/01/30 06:48:48;;;;;;;31.47;28.10;;;;;;;;;;5011376;28;20468;-69
2021/01/30 06:51:28;;;;;;;28.93;25.83;;;;;;;;;;5010463;28;20462;-69
2021/01/30 06:53:56;;;;;;;8.10;6.57;;;;;;;;;;5011231;28;20476;-68
2021/01/30 06:56:24;;;;;;;23.47;21.07;;;;;;;;;;5000460;28;20945;-68
2021/01/30 06:58:52;;;;;;;8.80;6.93;;;;;;;;;;4997383;28;20492;-71
2021/01/30 07:01:22;;;;;;;8.30;6.00;;;;;;;;;;4998980;28;20461;-72
2021/01/30 07:04:11;;;;;;;7.33;6.63;;;;;;;;;;5010918;28;20469;-72
2021/01/30 07:06:42;;;;;;;6.57;6.00;;;;;;;;;;5008978;28;20493;-71
2021/01/30 07:09:13;;;;;;;6.83;6.23;;;;;;;;;;5013409;28;20478;-72
2021/01/30 07:11:51;;;;;;;6.80;6.10;;;;;;;;;;5017924;28;20473;-68
2021/01/30 07:14:24;;;;;;;6.60;6.10;;;;;;;;;;5029248;28;20464;-68
2021/01/30 07:16:54;;;;;;;5.73;5.33;;;;;;;;;;5026782;28;20463;-70
2021/01/30 07:19:26;;;;;;;5.90;5.50;;;;;;;;;;5025107;28;20472;-70
2021/01/30 07:21:55;;;;;;;5.73;5.33;;;;;;;;;;5024014;28;20446;-69
2021/01/30 07:24:25;;;;;;;5.00;4.60;;;;;;;;;;5023695;28;20455;-69
2021/01/30 07:26:54;;;;;;;5.17;4.77;;;;;;;;;;5020011;28;20450;-70
2021/01/30 07:29:32;;;;;;;5.03;4.53;;;;;;;;;;5005582;28;21031;-70
2021/01/30 07:32:04;;;;;;;4.70;4.37;;;;;;;;;;5009133;28;20488;-70
2021/01/30 07:34:32;;;;;;;5.10;4.70;;;;;;;;;;5014146;28;20454;-70
2021/01/30 07:37:02;;;;;;;4.20;3.90;;;;;;;;;;5014016;28;20507;-70
2021/01/30 07:39:31;;;;;;;4.37;4.07;;;;;;;;;;5014719;28;20907;-70
2021/01/30 07:42:00;;;;;;;3.93;3.63;;;;;;;;;;5015989;28;20450;-70
2021/01/30 07:44:30;;;;;;;4.70;4.30;;;;;;;;;;5014347;28;20949;-70
2021/01/30 07:47:10;;;;;;;3.87;3.50;;;;;;;;;;5014716;28;20482;-70
2021/01/30 07:49:38;;;;;;;4.00;3.70;;;;;;;;;;5010176;28;20837;-70
2021/01/30 07:52:08;;;;;;;4.20;3.90;;;;;;;;;;5015883;28;20493;-70
2021/01/30 07:54:35;;;;;;;3.90;3.60;;;;;;;;;;5016604;28;20979;-70
2021/01/30 07:57:12;;;;;;;4.07;3.77;;;;;;;;;;5016938;28;20851;-70
2021/01/30 07:59:42;;;;;;;3.90;3.60;;;;;;;;;;5027026;28;20473;-67
2021/01/30 08:02:27;;;;;;;4.33;4.03;;;;;;;;;;5027999;28;20919;-68
2021/01/30 08:05:04;;;;;;;4.47;4.10;;;;;;;;;;5022346;28;20457;-70
2021/01/30 08:07:39;;;;;;;3.80;3.50;;;;;;;;;;5003903;28;20613;-70
2021/01/30 08:10:10;;;;;;;3.80;3.50;;;;;;;;;;5006493;28;20488;-70
2021/01/30 08:12:45;;;;;;;3.77;3.47;;;;;;;;;;5008491;28;20854;-70
2021/01/30 08:15:15;;;;;;;3.13;2.83;;;;;;;;;;5010371;28;20541;-70
2021/01/30 08:18:01;;;;;;;3.83;3.53;;;;;;;;;;5011911;28;20449;-70
2021/01/30 08:20:34;;;;;;;3.63;3.33;;;;;;;;;;5000828;28;21016;-70
2021/01/30 08:23:06;;;;;;;5.20;3.53;;;;;;;;;;5013164;28;20457;-70
2021/01/30 08:25:35;;;;;;;3.80;3.50;;;;;;;;;;5011282;28;20473;-70
2021/01/30 08:28:09;;;;;;;11.47;10.67;;;;;;;;;;5010452;28;20473;-73
2021/01/30 08:30:37;;;;;;;9.77;8.97;;;;;;;;;;5013279;28;20491;-74
2021/01/30 08:33:06;;;;;;;5.33;4.93;;;;;;;;;;5014530;28;20494;-73
2021/01/30 08:35:44;;;;;;;11.97;11.03;;;;;;;;;;5012572;28;20553;-74
2021/01/30 08:38:12;;;;;;;11.93;10.93;;;;;;;;;;5011819;28;20500;-73
2021/01/30 08:40:45;;;;;;;12.60;11.60;;;;;;;;;;5012753;28;20469;-71
2021/01/30 08:43:15;;;;;;;11.57;10.70;;;;;;;;;;5013388;28;20454;-71
2021/01/30 08:45:42;;;;;;;10.50;9.60;;;;;;;;;;5010474;28;20460;-72
2021/01/30 08:48:24;;;;;;;10.43;9.53;;;;;;;;;;5009061;28;20450;-72
2021/01/30 08:50:52;;;;;;;9.60;8.90;;;;;;;;;;5011468;28;20466;-72
2021/01/30 08:53:20;;;;;;;11.97;10.97;;;;;;;;;;5013252;28;20485;-73
2021/01/30 08:55:51;;;;;;;8.97;8.33;;;;;;;;;;5014677;28;20484;-72
2021/01/30 08:58:36;;;;;;;9.20;8.50;;;;;;;;;;5014357;28;20454;-74
2021/01/30 09:01:05;;;;;;;9.20;8.60;;;;;;;;;;5011526;28;20454;-74
2021/01/30 09:03:48;;;;;;;9.90;9.00;;;;;;;;;;5007469;28;20453;-63
2021/01/30 09:06:33;;;;;;;8.30;7.70;;;;;;;;;;5012486;28;20962;-63
2021/01/30 09:09:04;;;;;;;9.03;8.33;;;;;;;;;;5012418;28;20843;-75
2021/01/30 09:11:39;;;;;;;9.43;8.70;;;;;;;;;;5012143;28;20524;-71
2021/01/30 09:14:09;;;;;;;8.40;7.80;;;;;;;;;;5006371;28;20539;-71
2021/01/30 09:16:41;;;;;;;8.67;8.00;;;;;;;;;;5009330;28;21027;-71
2021/01/30 09:19:10;;;;;;;8.47;7.87;;;;;;;;;;5011617;28;20465;-71
2021/01/30 09:21:44;;;;;;;8.30;7.70;;;;;;;;;;5014356;28;20842;-73
2021/01/30 09:24:20;;;;;;;8.50;7.90;;;;;;;;;;5012501;28;20469;-77
2021/01/30 09:26:51;;;;;;;8.30;7.53;;;;;;;;;;5015822;28;20457;-77
2021/01/30 09:29:20;;;;;;;8.20;7.60;;;;;;;;;;5008311;28;20490;-80
2021/01/30 09:31:47;;;;;;;8.17;7.57;;;;;;;;;;5008863;28;20489;-72
2021/01/30 09:34:17;;;;;;;8.60;7.80;;;;;;;;;;5011743;28;20454;-72
2021/01/30 09:36:45;;;;;;;9.13;8.43;;;;;;;;;;4992875;28;20509;-70
2021/01/30 09:39:21;;;;;;;8.37;7.77;;;;;;;;;;4995842;28;20498;-71
2021/01/30 09:41:47;;;;;;;8.13;7.53;;;;;;;;;;4997243;28;20469;-71
2021/01/30 09:44:18;;;;;;;9.03;8.33;;;;;;;;;;5040312;22;20499;-71
2021/01/30 09:46:47;;;;;;;9.10;8.20;;;;;;;;;;5040422;28;20541;-70
2021/01/30 09:49:16;;;;;;;8.67;8.07;;;;;;;;;;5039631;28;20467;-71
2021/01/30 09:51:44;;;;;;;8.60;8.00;;;;;;;;;;5049295;28;20991;-71
2021/01/30 09:54:14;;;;;;;8.90;8.23;;;;;;;;;;5034944;28;20479;-71
2021/01/30 09:56:41;;;;;;;9.10;8.40;;;;;;;;;;5050905;28;20970;-71
2021/01/30 09:59:08;;;;;;;10.33;9.53;;;;;;;;;;5051552;28;20444;-71
2021/01/30 10:01:37;;;;;;;8.90;8.30;;;;;;;;;;5049180;28;20492;-71
2021/01/30 10:04:17;;;;;;;9.00;8.20;;;;;;;;;;5049879;28;20500;-70
2021/01/30 10:06:46;;;;;;;8.27;7.67;;;;;;;;;;5037128;28;20452;-71
2021/01/30 10:09:15;;;;;;;8.03;7.43;;;;;;;;;;5045448;28;20590;-71
2021/01/30 10:11:42;;;;;;;6.53;6.10;;;;;;;;;;5049662;28;20517;-71
2021/01/30 10:14:09;;;;;;;6.00;5.60;;;;;;;;;;5048991;28;20558;-71
2021/01/30 10:16:36;;;;;;;8.30;7.57;;;;;;;;;;5051064;28;20459;-70
2021/01/30 10:19:09;;;;;;;8.07;7.50;;;;;;;;;;5051040;28;21004;-71
2021/01/30 10:21:36;;;;;;;7.20;6.70;;;;;;;;;;5051044;28;20467;-71
2021/01/30 10:24:12;;;;;;;7.40;6.90;;;;;;;;;;5050057;28;20483;-71
2021/01/30 10:26:38;;;;;;;8.13;7.47;;;;;;;;;;5058777;28;20886;-70
2021/01/30 10:29:06;;;;;;;8.33;7.63;;;;;;;;;;5050632;28;20463;-71
2021/01/30 10:31:36;;;;;;;7.63;7.03;;;;;;;;;;5047893;28;20465;-71
2021/01/30 10:34:04;;;;;;;8.03;7.43;;;;;;;;;;5032927;28;20468;-70
2021/01/30 10:36:31;;;;;;;8.43;7.83;;;;;;;;;;5049171;28;20464;-70
2021/01/30 10:38:59;;;;;;;8.23;7.63;;;;;;;;;;5051209;28;20447;-71
2021/01/30 10:41:28;;;;;;;8.67;7.97;;;;;;;;;;5051748;28;20890;-71
2021/01/30 10:43:58;;;;;;;9.10;8.30;;;;;;;;;;5055155;28;20831;-71
2021/01/30 10:46:27;;;;;;;8.80;7.90;;;;;;;;;;5053334;28;20459;-70
2021/01/30 10:48:54;;;;;;;8.83;7.93;;;;;;;;;;5045359;28;20448;-71
2021/01/30 10:51:23;;;;;;;9.60;8.90;;;;;;;;;;5037830;28;20464;-71
2021/01/30 10:53:50;;;;;;;8.90;8.20;;;;;;;;;;5055176;28;20439;-71
2021/01/30 10:56:22;;;;;;;9.00;8.30;;;;;;;;;;5054579;28;20487;-71
2021/01/30 10:58:50;;;;;;;9.87;9.17;;;;;;;;;;5045518;28;20547;-71
2021/01/30 11:01:28;;;;;;;8.73;8.13;;;;;;;;;;5052899;28;20951;-71
2021/01/30 11:03:55;;;;;;;8.93;8.23;;;;;;;;;;5055374;28;20440;-71
2021/01/30 11:06:28;;;;;;;8.77;8.07;;;;;;;;;;5053487;28;20485;-71
2021/01/30 11:08:55;;;;;;;8.93;8.23;;;;;;;;;;5054606;28;20947;-70
2021/01/30 11:11:24;;;;;;;9.30;8.60;;;;;;;;;;5054045;28;20468;-71
2021/01/30 11:13:52;;;;;;;10.20;9.40;;;;;;;;;;5048929;28;20456;-71
2021/01/30 11:16:21;;;;;;;10.13;9.33;;;;;;;;;;5054777;28;20815;-71
2021/01/30 11:18:48;;;;;;;9.10;8.40;;;;;;;;;;5053809;28;20463;-71
2021/01/30 11:21:27;;;;;;;9.40;8.67;;;;;;;;;;5054670;28;20448;-71
2021/01/30 11:23:54;;;;;;;8.20;7.60;;;;;;;;;;5053032;28;20475;-70
2021/01/30 11:26:33;;;;;;;7.50;6.90;;;;;;;;;;5054864;28;20451;-70
2021/01/30 11:29:01;;;;;;;8.27;7.67;;;;;;;;;;5052974;28;20969;-70
2021/01/30 11:31:27;;;;;;;6.70;6.20;;;;;;;;;;5053698;28;20474;-70
2021/01/30 11:33:56;;;;;;;8.10;7.40;;;;;;;;;;5052706;28;20534;-70
2021/01/30 11:36:22;;;;;;;6.67;6.17;;;;;;;;;;5039517;28;20875;-70
2021/01/30 11:38:55;;;;;;;6.53;6.13;;;;;;;;;;5034192;28;20456;-70
2021/01/30 11:41:21;;;;;;;7.43;6.80;;;;;;;;;;5049195;28;20470;-71
2021/01/30 11:43:48;;;;;;;7.23;6.63;;;;;;;;;;5054131;28;20443;-70
2021/01/30 11:46:15;;;;;;;9.30;8.60;;;;;;;;;;5053495;28;20467;-70
2021/01/30 11:48:42;;;;;;;5.77;5.27;;;;;;;;;;5053912;28;20478;-71
2021/01/30 11:51:11;;;;;;;5.73;5.17;;;;;;;;;;5054177;28;20466;-71
2021/01/30 11:53:37;;;;;;;5.70;5.30;;;;;;;;;;5053313;28;20483;-71
2021/01/30 11:56:04;;;;;;;5.60;5.20;;;;;;;;;;5054672;28;20521;-69
2021/01/30 11:58:31;;;;;;;4.77;4.43;;;;;;;;;;5052158;28;20472;-71
2021/01/30 12:00:57;;;;;;;5.67;5.27;;;;;;;;;;5034155;28;20444;-71
2021/01/30 12:03:26;;;;;;;5.33;4.93;;;;;;;;;;5045714;28;20467;-72
2021/01/30 12:05:53;;;;;;;6.83;6.23;;;;;;;;;;5054009;28;20468;-70
2021/01/30 12:08:20;;;;;;;7.23;6.73;;;;;;;;;;5049958;28;20459;-70
2021/01/30 12:10:46;;;;;;;6.83;6.30;;;;;;;;;;5050294;28;20508;-70
2021/01/30 12:13:13;;;;;;;7.03;6.43;;;;;;;;;;5053606;28;20483;-70
2021/01/30 12:15:40;;;;;;;6.83;6.23;;;;;;;;;;5041115;28;20506;-70
2021/01/30 12:18:10;;;;;;;5.53;5.13;;;;;;;;;;5033621;28;20451;-70
2021/01/30 12:20:37;;;;;;;5.90;5.50;;;;;;;;;;5044263;28;20472;-70
2021/01/30 12:23:04;;;;;;;6.17;5.70;;;;;;;;;;5054039;28;20853;-70
2021/01/30 12:25:31;;;;;;;6.50;6.00;;;;;;;;;;5050867;28;20487;-70
2021/01/30 12:27:59;;;;;;;6.63;6.10;;;;;;;;;;5053453;28;20448;-69
2021/01/30 12:30:26;;;;;;;6.70;6.20;;;;;;;;;;5052289;28;20467;-70
2021/01/30 12:32:53;;;;;;;6.23;5.80;;;;;;;;;;5053528;28;20479;-70
2021/01/30 12:35:21;;;;;;;5.87;5.43;;;;;;;;;;5051823;28;20491;-70
2021/01/30 12:37:49;;;;;;;6.70;6.20;;;;;;;;;;5051615;28;20475;-70
2021/01/30 12:40:16;;;;;;;6.90;6.40;;;;;;;;;;5044725;28;20465;-70
2021/01/30 12:42:43;;;;;;;6.87;6.37;;;;;;;;;;5033334;28;20455;-70
2021/01/30 12:45:10;;;;;;;7.97;7.37;;;;;;;;;;5039216;28;20518;-69
2021/01/30 12:47:36;;;;;;;5.90;5.50;;;;;;;;;;5053519;28;20447;-69
2021/01/30 12:50:04;;;;;;;6.07;5.60;;;;;;;;;;5051693;28;20464;-70
2021/01/30 12:52:31;;;;;;;5.50;5.10;;;;;;;;;;5048840;28;20534;-69
2021/01/30 12:54:58;;;;;;;5.43;5.03;;;;;;;;;;5052825;28;20463;-69
2021/01/30 12:57:25;;;;;;;5.93;5.53;;;;;;;;;;5051829;28;20493;-70
2021/01/30 12:59:52;;;;;;;6.20;5.73;;;;;;;;;;5053025;28;20444;-70
2021/01/30 13:02:18;;;;;;;7.40;6.83;;;;;;;;;;5050675;28;20884;-68
2021/01/30 13:04:45;;;;;;;6.50;6.00;;;;;;;;;;5034240;28;20525;-70
2021/01/30 13:07:11;;;;;;;6.23;5.73;;;;;;;;;;5041590;28;20957;-70
2021/01/30 13:09:38;;;;;;;6.50;6.00;;;;;;;;;;5049929;28;20490;-70
2021/01/30 13:12:10;;;;;;;5.40;5.00;;;;;;;;;;5049632;28;20538;-70
2021/01/30 13:14:37;;;;;;;6.40;5.90;;;;;;;;;;5052872;28;20472;-70
2021/01/30 13:17:04;;;;;;;6.60;6.10;;;;;;;;;;5052499;28;20448;-69
2021/01/30 13:19:31;;;;;;;6.17;5.70;;;;;;;;;;5051370;28;20452;-70
2021/01/30 13:21:57;;;;;;;5.33;4.93;;;;;;;;;;5051155;28;20440;-70
2021/01/30 13:24:24;;;;;;;5.17;4.80;;;;;;;;;;5052313;28;20840;-70
2021/01/30 13:26:50;;;;;;;4.10;3.80;;;;;;;;;;5052212;28;20448;-70
2021/01/30 13:29:19;;;;;;;5.00;4.70;;;;;;;;;;5049098;28;21031;-70
2021/01/30 13:31:47;;;;;;;4.87;4.47;;;;;;;;;;5052300;28;20740;-70
2021/01/30 13:34:14;;;;;;;5.23;4.83;;;;;;;;;;5051392;28;20541;-70
2021/01/30 13:36:41;;;;;;;6.73;6.30;;;;;;;;;;5052142;28;20444;-70
2021/01/30 13:39:07;;;;;;;6.97;6.47;;;;;;;;;;5051015;28;20463;-70
2021/01/30 13:41:34;;;;;;;7.77;7.10;;;;;;;;;;5052297;28;20458;-70
2021/01/30 13:44:01;;;;;;;7.10;6.53;;;;;;;;;;5049034;28;20479;-69
2021/01/30 13:46:29;;;;;;;8.30;7.67;;;;;;;;;;5052143;28;20448;-69
2021/01/30 13:48:55;;;;;;;7.17;6.67;;;;;;;;;;5050886;28;20984;-69
2021/01/30 13:51:22;;;;;;;7.77;7.17;;;;;;;;;;5051163;28;20521;-70
2021/01/30 13:53:49;;;;;;;8.53;7.83;;;;;;;;;;5051482;28;20822;-69
2021/01/30 13:56:16;;;;;;;7.67;7.07;;;;;;;;;;5049293;28;20510;-70
2021/01/30 13:58:42;;;;;;;8.40;7.70;;;;;;;;;;5050218;28;20468;-70
2021/01/30 14:01:09;;;;;;;9.03;8.33;;;;;;;;;;5051817;28;20840;-70
2021/01/30 14:03:36;;;;;;;10.23;9.33;;;;;;;;;;5047438;28;20467;-69
2021/01/30 14:06:03;;;;;;;10.23;9.40;;;;;;;;;;5050002;28;20479;-70
2021/01/30 14:08:29;;;;;;;10.67;9.77;;;;;;;;;;5050743;28;20472;-70
2021/01/30 14:10:56;;;;;;;9.87;9.10;;;;;;;;;;5051722;28;20455;-70
2021/01/30 14:13:23;;;;;;;10.27;9.47;;;;;;;;;;5048124;28;20487;-70
2021/01/30 14:15:49;;;;;;;10.23;9.43;;;;;;;;;;5055607;28;20467;-69
2021/01/30 14:18:17;;;;;;;10.60;9.77;;;;;;;;;;5057260;28;20456;-70
2021/01/30 14:20:45;;;;;;;10.60;9.80;;;;;;;;;;5057977;28;20474;-69
2021/01/30 14:23:12;;;;;;;11.20;10.33;;;;;;;;;;5057465;28;20467;-68
2021/01/30 14:25:38;;;;;;;10.50;9.70;;;;;;;;;;5058178;28;20478;-70
2021/01/30 14:28:05;;;;;;;11.30;10.40;;;;;;;;;;5045439;28;20509;-70
2021/01/30 14:30:32;;;;;;;11.20;10.30;;;;;;;;;;5051704;28;20520;-69
2021/01/30 14:32:59;;;;;;;10.73;10.00;;;;;;;;;;5058522;28;20479;-70
2021/01/30 14:35:27;;;;;;;11.20;10.10;;;;;;;;;;5056829;28;20540;-70
2021/01/30 14:37:55;;;;;;;11.00;10.07;;;;;;;;;;5057118;28;20502;-69
2021/01/30 14:40:23;;;;;;;9.77;8.97;;;;;;;;;;5057925;28;20452;-70